Time;durP1;ratioP1;P1;durP2;ratioP2;P2;SDS_P1;SDS_P2;PMS_P1;PMS_P2;Temp;Humidity;BMP_temperature;BMP_pressure;BME280_temperature;BME280_humidity;BME280_pressure;Samples;Min_cycle;Max_cycle;Signal;HPM_P1;HPM_P2
2021/10/13 09:36:02;;;;;;;14.00;4.15;;;12.10;99.90;;;;;;12152949;27;20402;-76
2021/10/13 09:42:01;;;;;;;19.58;5.38;;;13.70;99.90;;;;;;12170377;27;20043;-76
2021/10/13 09:47:56;;;;;;;20.02;5.55;;;14.00;99.90;;;;;;12168165;27;20069;-76
2021/10/13 09:53:47;;;;;;;22.90;6.13;;;14.30;99.90;;;;;;12173422;27;20047;-82
2021/10/13 09:59:35;;;;;;;18.80;4.63;;;14.20;99.90;;;;;;12157571;27;20058;-80
2021/10/13 10:05:25;;;;;;;19.20;7.97;;;14.40;99.90;;;;;;12134819;28;20131;-82
2021/10/13 10:11:15;;;;;;;20.67;4.50;;;14.50;99.90;;;;;;12138247;28;20051;-80
2021/10/13 10:17:04;;;;;;;13.02;4.47;;;14.60;99.90;;;;;;12132425;28;20044;-80
2021/10/13 10:22:51;;;;;;;14.02;4.72;;;14.80;99.90;;;;;;12132802;27;20054;-80
2021/10/13 10:28:59;;;;;;;11.30;3.85;;;14.80;99.90;;;;;;12121779;28;20040;-82
2021/10/13 10:35:09;;;;;;;18.88;4.38;;;14.60;99.90;;;;;;12111550;28;20791;-81
2021/10/13 10:41:10;;;;;;;15.88;4.25;;;14.80;99.90;;;;;;12098580;28;20055;-79
2021/10/13 10:47:03;;;;;;;14.50;4.43;;;14.90;99.90;;;;;;12096932;28;20058;-78
2021/10/13 10:53:09;;;;;;;11.50;3.67;;;15.00;99.90;;;;;;12141294;28;20115;-72
2021/10/13 10:59:01;;;;;;;9.35;2.40;;;15.10;99.90;;;;;;12087518;28;20052;-73
2021/10/13 11:05:01;;;;;;;9.73;2.90;;;15.30;99.90;;;;;;12093767;28;20043;-73
2021/10/13 11:10:48;;;;;;;12.35;3.40;;;15.50;99.90;;;;;;12092778;27;20516;-77
2021/10/13 11:16:38;;;;;;;12.82;3.10;;;15.70;99.90;;;;;;12052330;28;20052;-76
2021/10/13 11:22:26;;;;;;;17.00;3.28;;;15.80;99.90;;;;;;12038406;28;20048;-77
2021/10/13 11:28:15;;;;;;;15.82;3.30;;;15.90;99.90;;;;;;12035518;28;20052;-78
2021/10/13 11:34:08;;;;;;;12.02;3.25;;;15.60;99.90;;;;;;12081769;28;20075;-77
2021/10/13 11:39:57;;;;;;;13.02;3.47;;;15.70;99.90;;;;;;12036185;27;20061;-78
2021/10/13 11:45:48;;;;;;;18.85;3.50;;;15.90;99.90;;;;;;12060472;28;20075;-76
2021/10/13 11:51:35;;;;;;;12.13;3.15;;;15.80;99.90;;;;;;12054473;28;21323;-78
2021/10/13 11:57:24;;;;;;;21.27;3.38;;;15.80;99.90;;;;;;12047717;28;20409;-78
2021/10/13 12:03:13;;;;;;;10.85;4.28;;;15.70;99.90;;;;;;12051692;28;20737;-77
2021/10/13 12:09:08;;;;;;;5.68;2.13;;;15.80;99.90;;;;;;12035052;28;20048;-79
2021/10/13 12:14:56;;;;;;;5.03;2.20;;;16.00;99.90;;;;;;12042692;28;20064;-77
2021/10/13 12:20:44;;;;;;;9.45;2.53;;;16.50;98.40;;;;;;12048616;28;20068;-78
2021/10/13 12:26:37;;;;;;;14.65;2.65;;;16.40;98.90;;;;;;12076514;28;20056;-77
2021/10/13 12:32:28;;;;;;;9.43;2.43;;;16.10;99.20;;;;;;12074519;28;20048;-78
2021/10/13 12:38:17;;;;;;;8.32;2.42;;;16.00;99.00;;;;;;12089467;28;20393;-78
2021/10/13 12:44:13;;;;;;;9.13;3.08;;;16.20;98.80;;;;;;12057842;27;20056;-79
2021/10/13 12:50:13;;;;;;;12.20;2.53;;;16.60;96.50;;;;;;12063911;28;20500;-79
2021/10/13 12:56:00;;;;;;;5.63;2.28;;;17.00;95.60;;;;;;12083034;27;20710;-78
2021/10/13 13:01:47;;;;;;;11.50;2.67;;;16.90;96.50;;;;;;12054823;28;20056;-77
2021/10/13 13:07:35;;;;;;;10.45;2.90;;;16.60;96.60;;;;;;12031593;28;20063;-79
2021/10/13 13:13:22;;;;;;;11.05;2.58;;;16.30;96.40;;;;;;12076689;28;20145;-78
2021/10/13 13:19:09;;;;;;;10.02;2.28;;;16.40;96.80;;;;;;12076342;28;20060;-78
2021/10/13 13:24:57;;;;;;;8.65;1.98;;;16.70;94.30;;;;;;12075621;28;20059;-76
2021/10/13 13:30:45;;;;;;;13.15;2.70;;;17.10;93.80;;;;;;12079352;28;20060;-77
2021/10/13 13:36:32;;;;;;;7.50;1.98;;;17.50;92.70;;;;;;12074414;28;20055;-79
2021/10/13 13:42:20;;;;;;;11.52;3.22;;;17.70;90.50;;;;;;12079311;28;20056;-81
2021/10/13 13:48:08;;;;;;;10.88;1.90;;;17.90;90.70;;;;;;12082892;28;20074;-81
2021/10/13 13:53:55;;;;;;;9.23;1.92;;;18.10;88.30;;;;;;12077670;28;20343;-78
2021/10/13 13:59:43;;;;;;;5.07;1.90;;;18.30;88.20;;;;;;12079968;28;20059;-79
2021/10/13 14:05:30;;;;;;;5.65;1.70;;;18.30;85.90;;;;;;12084314;28;20131;-80
2021/10/13 14:11:17;;;;;;;7.95;2.15;;;17.50;86.70;;;;;;12093313;28;20063;-78
2021/10/13 14:17:05;;;;;;;9.52;2.22;;;17.00;87.60;;;;;;12087040;28;20052;-77
2021/10/13 14:22:52;;;;;;;8.27;2.05;;;17.30;89.60;;;;;;12085418;28;20067;-76
2021/10/13 14:28:39;;;;;;;10.27;1.92;;;17.70;86.00;;;;;;12085365;28;20516;-76
2021/10/13 14:34:28;;;;;;;7.85;1.90;;;18.10;85.60;;;;;;12086527;28;20051;-76
2021/10/13 14:40:15;;;;;;;6.13;1.70;;;18.20;81.60;;;;;;12087572;28;20059;-77
2021/10/13 14:46:02;;;;;;;4.97;1.27;;;18.10;78.60;;;;;;12087085;28;20683;-77
2021/10/13 14:51:50;;;;;;;5.82;1.50;;;17.70;78.50;;;;;;12083497;28;20424;-77
2021/10/13 14:57:37;;;;;;;8.13;1.75;;;17.70;78.90;;;;;;12085158;28;20056;-77
2021/10/13 15:03:24;;;;;;;7.93;2.17;;;17.70;80.70;;;;;;12082506;28;20052;-77
2021/10/13 15:09:12;;;;;;;6.82;2.00;;;17.80;83.40;;;;;;12086121;28;20088;-77
2021/10/13 15:14:59;;;;;;;5.07;1.73;;;17.90;83.70;;;;;;12085197;28;20524;-77
2021/10/13 15:20:46;;;;;;;6.75;1.60;;;18.00;79.90;;;;;;12086580;28;20523;-78
2021/10/13 15:26:34;;;;;;;11.57;1.95;;;18.10;81.20;;;;;;12089627;28;20044;-78
2021/10/13 15:32:21;;;;;;;12.48;2.25;;;18.00;81.80;;;;;;12107547;28;20052;-77
2021/10/13 15:38:09;;;;;;;5.55;1.88;;;17.80;82.30;;;;;;12084880;28;20064;-79
2021/10/13 15:43:57;;;;;;;35.75;16.27;;;17.50;82.70;;;;;;12076773;28;20151;-77
2021/10/13 15:49:44;;;;;;;7.25;1.70;;;17.50;83.00;;;;;;12083169;28;20063;-77
2021/10/13 15:55:31;;;;;;;9.82;1.77;;;17.10;82.70;;;;;;12083297;28;20051;-77
2021/10/13 16:01:20;;;;;;;9.35;2.00;;;16.90;83.00;;;;;;12085117;27;20055;-75
2021/10/13 16:07:06;;;;;;;6.22;2.25;;;16.90;85.10;;;;;;12076709;28;20060;-75
2021/10/13 16:12:53;;;;;;;7.55;1.73;;;16.70;88.40;;;;;;12080002;28;20048;-76
2021/10/13 16:18:42;;;;;;;9.30;2.10;;;16.40;91.30;;;;;;12075961;28;20056;-75
2021/10/13 16:24:29;;;;;;;7.47;2.05;;;15.90;91.40;;;;;;12072767;28;20073;-76
2021/10/13 16:30:17;;;;;;;6.72;1.90;;;15.80;92.10;;;;;;12078488;28;20074;-77
2021/10/13 16:36:06;;;;;;;8.10;2.20;;;15.60;93.50;;;;;;12083951;27;20066;-77
2021/10/13 16:41:53;;;;;;;12.52;1.95;;;15.20;95.30;;;;;;12076311;28;20052;-76
2021/10/13 16:47:40;;;;;;;3.00;1.65;;;14.90;96.60;;;;;;12080771;28;20174;-76
2021/10/13 16:53:29;;;;;;;6.95;1.75;;;14.70;97.60;;;;;;12051341;28;20048;-77
2021/10/13 16:59:16;;;;;;;8.52;2.10;;;14.50;98.40;;;;;;12033699;28;20056;-77
2021/10/13 17:05:03;;;;;;;3.95;1.73;;;14.40;99.40;;;;;;12036130;28;20081;-76
2021/10/13 17:10:51;;;;;;;9.45;2.30;;;14.40;99.90;;;;;;12085614;27;20052;-77
2021/10/13 17:16:38;;;;;;;5.43;1.90;;;14.30;99.90;;;;;;12079333;28;20064;-77
2021/10/13 17:22:27;;;;;;;8.63;1.85;;;14.40;99.90;;;;;;12083235;28;20056;-77
2021/10/13 17:28:16;;;;;;;7.63;2.30;;;14.20;99.90;;;;;;12079995;28;20056;-76
2021/10/13 17:34:04;;;;;;;5.68;2.08;;;14.10;99.90;;;;;;12080932;28;20063;-76
2021/10/13 17:39:51;;;;;;;4.65;2.17;;;14.00;99.90;;;;;;12079575;28;20056;-77
2021/10/13 17:45:40;;;;;;;11.02;2.80;;;14.00;99.90;;;;;;12085514;28;20169;-75
2021/10/13 17:51:27;;;;;;;3.63;1.67;;;13.90;99.90;;;;;;12086075;28;20056;-75
2021/10/13 17:57:14;;;;;;;6.53;1.80;;;13.80;99.90;;;;;;12069043;28;20068;-75
2021/10/13 18:03:02;;;;;;;10.57;2.65;;;13.70;99.90;;;;;;12083562;28;20055;-76
2021/10/13 18:08:49;;;;;;;11.75;2.92;;;13.70;99.90;;;;;;12072453;28;20473;-76
2021/10/13 18:14:36;;;;;;;12.00;2.60;;;13.70;99.90;;;;;;12081036;28;22260;-76
2021/10/13 18:20:26;;;;;;;7.82;2.40;;;13.60;99.90;;;;;;12060747;28;20045;-75
2021/10/13 18:26:14;;;;;;;10.55;2.97;;;13.40;99.90;;;;;;12056618;28;20052;-75
2021/10/13 18:32:01;;;;;;;10.23;3.50;;;13.50;99.90;;;;;;12058689;27;20609;-74
2021/10/13 18:37:49;;;;;;;12.65;3.90;;;13.50;99.90;;;;;;12088648;28;20120;-75
2021/10/13 18:43:36;;;;;;;8.02;2.72;;;13.40;99.90;;;;;;12078160;28;21192;-75
2021/10/13 18:49:24;;;;;;;8.40;3.15;;;13.40;99.90;;;;;;12085532;28;20056;-74
2021/10/13 18:55:12;;;;;;;11.65;3.22;;;13.40;99.90;;;;;;12082494;28;20080;-75
2021/10/13 19:00:59;;;;;;;8.38;3.28;;;13.30;99.90;;;;;;12078248;28;20105;-75
2021/10/13 19:06:45;;;;;;;10.65;4.10;;;13.30;99.90;;;;;;12080899;28;20059;-79
2021/10/13 19:12:34;;;;;;;11.32;4.80;;;13.30;99.90;;;;;;12083083;28;20051;-79
2021/10/13 19:18:21;;;;;;;14.68;5.47;;;13.20;99.90;;;;;;12087029;28;20059;-78
2021/10/13 19:24:08;;;;;;;9.13;4.15;;;13.10;99.90;;;;;;12087751;28;20059;-78
2021/10/13 19:29:56;;;;;;;9.98;4.60;;;13.00;99.90;;;;;;12083466;28;20067;-77
2021/10/13 19:35:43;;;;;;;12.15;4.82;;;13.00;99.90;;;;;;12087780;28;20048;-78
2021/10/13 19:41:30;;;;;;;12.20;4.40;;;13.00;99.90;;;;;;12078709;28;20044;-78
2021/10/13 19:47:18;;;;;;;13.13;3.92;;;12.90;99.90;;;;;;12085327;28;20055;-78
2021/10/13 19:53:07;;;;;;;9.68;4.72;;;12.90;99.90;;;;;;12085919;28;20052;-78
2021/10/13 19:58:54;;;;;;;13.02;5.07;;;12.90;99.90;;;;;;12059031;28;20059;-78
2021/10/13 20:04:42;;;;;;;10.55;5.55;;;12.80;99.90;;;;;;12084264;28;20404;-77
2021/10/13 20:10:29;;;;;;;18.52;7.35;;;12.80;99.90;;;;;;12084305;28;20067;-78
2021/10/13 20:16:16;;;;;;;20.45;8.20;;;12.70;99.90;;;;;;12084135;28;20047;-77
2021/10/13 20:22:05;;;;;;;13.13;5.53;;;12.60;99.90;;;;;;12085351;28;20468;-77
2021/10/13 20:27:52;;;;;;;10.13;4.97;;;12.60;99.90;;;;;;12089201;28;20060;-76
2021/10/13 20:33:39;;;;;;;13.70;6.63;;;12.70;99.90;;;;;;12082565;28;20044;-78
2021/10/13 20:39:27;;;;;;;17.95;7.85;;;12.70;99.90;;;;;;12087113;28;20044;-77
2021/10/13 20:45:15;;;;;;;18.77;6.72;;;12.60;99.90;;;;;;12080022;28;20052;-78
2021/10/13 20:51:02;;;;;;;16.63;6.97;;;12.60;99.90;;;;;;12086044;28;20052;-77
2021/10/13 20:56:51;;;;;;;19.30;7.18;;;12.50;99.90;;;;;;12081575;28;20135;-75
2021/10/13 21:02:38;;;;;;;13.68;7.40;;;12.40;99.90;;;;;;12080293;28;21254;-75
2021/10/13 21:08:25;;;;;;;16.25;7.10;;;12.40;99.90;;;;;;12039945;28;20052;-75
2021/10/13 21:14:13;;;;;;;14.30;6.63;;;12.30;99.90;;;;;;12061455;27;20097;-75
2021/10/13 21:20:00;;;;;;;16.38;6.88;;;12.20;99.90;;;;;;12075941;28;20051;-75
2021/10/13 21:25:47;;;;;;;14.15;6.82;;;12.10;99.90;;;;;;12078203;28;20056;-76
2021/10/13 21:31:36;;;;;;;13.40;6.78;;;12.00;99.90;;;;;;12071739;28;20060;-76
2021/10/13 21:37:23;;;;;;;19.88;7.40;;;11.90;99.90;;;;;;12082317;28;20051;-76
2021/10/13 21:43:10;;;;;;;20.40;8.95;;;11.80;99.90;;;;;;12078142;28;20051;-76
2021/10/13 21:48:58;;;;;;;18.02;7.65;;;11.80;99.90;;;;;;12079287;28;20118;-82
2021/10/13 21:54:45;;;;;;;14.85;6.63;;;11.80;99.90;;;;;;12075127;28;20052;-83
2021/10/13 22:00:34;;;;;;;11.75;6.70;;;11.80;99.90;;;;;;12081565;28;20055;-83
